Time;durP1;ratioP1;P1;durP2;ratioP2;P2;SDS_P1;SDS_P2;PMS_P1;PMS_P2;Temp;Humidity;BMP_temperature;BMP_pressure;BME280_temperature;BME280_humidity;BME280_pressure;Samples;Min_cycle;Max_cycle;Signal;HPM_P1;HPM_P2
2021/09/13 00:00:53;;;;;;;8.45;3.53;;;;;;;;;;4982723;28;20570;-82
2021/09/13 00:03:20;;;;;;;8.05;3.55;;;;;;;;;;4956969;28;20023;-81
2021/09/13 00:05:48;;;;;;;7.30;3.35;;;;;;;;;;4978615;28;20042;-82
2021/09/13 00:08:14;;;;;;;8.32;4.00;;;;;;;;;;4962017;28;20060;-83
2021/09/13 00:10:43;;;;;;;7.82;3.67;;;;;;;;;;4976426;28;20047;-82
2021/09/13 00:13:10;;;;;;;8.02;3.35;;;;;;;;;;4976335;28;20046;-82
2021/09/13 00:15:38;;;;;;;9.18;3.72;;;;;;;;;;4965333;28;20037;-82
2021/09/13 00:18:05;;;;;;;9.23;3.60;;;;;;;;;;4962776;28;20058;-82
2021/09/13 00:20:31;;;;;;;7.38;3.17;;;;;;;;;;4984967;28;20587;-82
2021/09/13 00:23:00;;;;;;;10.10;3.58;;;;;;;;;;4969065;28;20041;-82
2021/09/13 00:25:27;;;;;;;8.13;3.28;;;;;;;;;;4963658;28;20038;-82
2021/09/13 00:27:55;;;;;;;8.18;3.30;;;;;;;;;;4984294;28;20792;-83
2021/09/13 00:30:21;;;;;;;7.22;3.00;;;;;;;;;;4977990;28;20044;-82
2021/09/13 00:32:48;;;;;;;7.55;3.67;;;;;;;;;;4987550;28;20151;-81
2021/09/13 00:35:16;;;;;;;8.38;3.22;;;;;;;;;;4985501;28;20050;-81
2021/09/13 00:37:42;;;;;;;8.38;3.30;;;;;;;;;;4962956;28;20816;-82
2021/09/13 00:40:10;;;;;;;8.73;3.40;;;;;;;;;;4980396;28;20054;-81
2021/09/13 00:42:38;;;;;;;7.55;3.25;;;;;;;;;;4962527;28;20058;-82
2021/09/13 00:45:04;;;;;;;9.02;3.22;;;;;;;;;;4952004;28;20031;-82
2021/09/13 00:47:32;;;;;;;8.70;3.70;;;;;;;;;;4970731;28;20023;-82
2021/09/13 00:49:59;;;;;;;10.55;3.78;;;;;;;;;;4975882;28;20042;-83
2021/09/13 00:52:26;;;;;;;6.80;3.17;;;;;;;;;;4975086;28;20100;-82
2021/09/13 00:54:53;;;;;;;8.48;3.60;;;;;;;;;;4983800;28;20085;-83
2021/09/13 00:57:20;;;;;;;9.90;3.22;;;;;;;;;;4978290;28;20507;-83
2021/09/13 00:59:46;;;;;;;7.95;3.50;;;;;;;;;;4967903;28;20034;-81
2021/09/13 01:02:14;;;;;;;7.70;3.40;;;;;;;;;;4967386;28;20041;-82
2021/09/13 01:04:42;;;;;;;8.73;3.42;;;;;;;;;;4966016;28;20567;-83
2021/09/13 01:07:09;;;;;;;8.80;3.30;;;;;;;;;;4964601;28;20085;-82
2021/09/13 01:09:36;;;;;;;8.45;3.25;;;;;;;;;;4970354;28;20120;-82
2021/09/13 01:12:04;;;;;;;8.23;3.30;;;;;;;;;;4969151;28;20524;-82
2021/09/13 01:14:36;;;;;;;9.70;3.40;;;;;;;;;;4964024;28;20088;-82
2021/09/13 01:17:05;;;;;;;9.25;3.20;;;;;;;;;;4992734;28;20118;-82
2021/09/13 01:19:32;;;;;;;8.13;3.13;;;;;;;;;;4974721;28;20036;-83
2021/09/13 01:22:04;;;;;;;7.57;3.00;;;;;;;;;;4971970;28;20145;-81
2021/09/13 01:24:30;;;;;;;8.38;3.30;;;;;;;;;;4979597;28;20422;-81
2021/09/13 01:27:06;;;;;;;7.82;3.10;;;;;;;;;;4981139;28;20034;-81
2021/09/13 01:29:32;;;;;;;8.40;3.15;;;;;;;;;;4959473;28;20045;-82
2021/09/13 01:31:59;;;;;;;9.35;3.38;;;;;;;;;;4966922;28;20514;-82
2021/09/13 01:34:26;;;;;;;9.30;3.67;;;;;;;;;;4962615;28;20038;-80
2021/09/13 01:36:54;;;;;;;7.32;2.88;;;;;;;;;;4967608;28;20045;-81
2021/09/13 01:39:22;;;;;;;9.10;3.30;;;;;;;;;;4977980;28;20026;-81
2021/09/13 01:41:48;;;;;;;8.48;3.38;;;;;;;;;;4964621;28;20050;-81
2021/09/13 01:44:16;;;;;;;7.00;3.15;;;;;;;;;;4963433;28;20042;-81
2021/09/13 01:46:43;;;;;;;10.45;3.47;;;;;;;;;;4962163;28;20074;-80
2021/09/13 01:49:10;;;;;;;6.70;3.33;;;;;;;;;;4968121;28;20038;-80
2021/09/13 01:51:37;;;;;;;9.27;3.40;;;;;;;;;;4957090;28;20041;-80
2021/09/13 01:54:04;;;;;;;8.57;3.15;;;;;;;;;;4978995;28;20408;-80
2021/09/13 01:56:30;;;;;;;7.90;3.13;;;;;;;;;;4960936;28;20050;-81
2021/09/13 01:58:58;;;;;;;7.40;3.22;;;;;;;;;;4961854;28;20227;-81
2021/09/13 02:01:26;;;;;;;9.35;3.35;;;;;;;;;;4962197;28;20162;-80
2021/09/13 02:03:55;;;;;;;12.25;3.55;;;;;;;;;;4958145;28;20050;-80
2021/09/13 02:06:21;;;;;;;8.60;3.22;;;;;;;;;;4962146;28;20158;-84
2021/09/13 02:08:48;;;;;;;6.80;3.00;;;;;;;;;;4980457;28;20034;-80
2021/09/13 02:11:15;;;;;;;7.63;3.28;;;;;;;;;;4962755;28;20041;-80
2021/09/13 02:13:42;;;;;;;9.73;3.83;;;;;;;;;;4960952;28;20038;-81
2021/09/13 02:16:09;;;;;;;10.35;3.60;;;;;;;;;;4966010;28;20038;-80
2021/09/13 02:18:36;;;;;;;8.00;3.72;;;;;;;;;;4961003;28;20030;-81
2021/09/13 02:21:02;;;;;;;8.93;3.53;;;;;;;;;;4962834;28;20030;-80
2021/09/13 02:23:29;;;;;;;7.85;3.30;;;;;;;;;;4957126;28;20129;-80
2021/09/13 02:25:57;;;;;;;8.82;3.35;;;;;;;;;;4971994;28;20034;-80
2021/09/13 02:28:24;;;;;;;12.00;4.65;;;;;;;;;;4950712;28;20440;-81
2021/09/13 02:30:50;;;;;;;9.52;3.72;;;;;;;;;;4974353;28;20039;-81
2021/09/13 02:33:17;;;;;;;10.32;4.07;;;;;;;;;;4959160;28;20500;-81
2021/09/13 02:35:45;;;;;;;9.98;4.30;;;;;;;;;;4960829;28;20193;-81
2021/09/13 02:38:12;;;;;;;8.10;3.78;;;;;;;;;;4959317;28;20042;-80
2021/09/13 02:40:38;;;;;;;11.60;3.85;;;;;;;;;;4960763;28;20046;-81
2021/09/13 02:43:05;;;;;;;10.13;4.03;;;;;;;;;;4962330;28;20411;-80
2021/09/13 02:45:32;;;;;;;8.75;3.78;;;;;;;;;;4963083;28;20141;-80
2021/09/13 02:47:59;;;;;;;9.90;3.92;;;;;;;;;;4962835;28;20110;-81
2021/09/13 02:50:26;;;;;;;7.20;3.30;;;;;;;;;;4959776;28;20034;-80
2021/09/13 02:52:53;;;;;;;9.35;3.85;;;;;;;;;;4969110;28;20038;-81
2021/09/13 02:55:20;;;;;;;8.65;3.58;;;;;;;;;;4974849;28;20038;-83
2021/09/13 02:57:47;;;;;;;7.00;3.15;;;;;;;;;;4962897;28;20671;-81
2021/09/13 03:00:15;;;;;;;9.50;3.38;;;;;;;;;;4969153;28;20152;-81
2021/09/13 03:02:43;;;;;;;8.55;3.38;;;;;;;;;;4965619;28;20803;-81
2021/09/13 03:05:10;;;;;;;7.57;3.53;;;;;;;;;;4962712;28;20038;-80
2021/09/13 03:07:37;;;;;;;8.10;3.30;;;;;;;;;;4959258;28;20081;-80
2021/09/13 03:10:05;;;;;;;8.57;3.65;;;;;;;;;;4956397;28;20038;-80
2021/09/13 03:12:33;;;;;;;9.70;3.50;;;;;;;;;;4977618;28;20034;-81
2021/09/13 03:15:05;;;;;;;9.10;3.08;;;;;;;;;;4965983;28;20033;-81
2021/09/13 03:17:32;;;;;;;7.63;3.40;;;;;;;;;;4966732;28;20706;-81
2021/09/13 03:19:58;;;;;;;7.97;3.22;;;;;;;;;;4962730;28;20042;-81
2021/09/13 03:22:24;;;;;;;7.38;3.10;;;;;;;;;;4975346;28;20084;-81
2021/09/13 03:24:51;;;;;;;8.15;2.95;;;;;;;;;;4978369;28;20041;-81
2021/09/13 03:27:18;;;;;;;10.18;3.38;;;;;;;;;;4961032;28;20317;-80
2021/09/13 03:29:45;;;;;;;8.32;3.40;;;;;;;;;;4978168;28;20046;-80
2021/09/13 03:32:12;;;;;;;8.48;3.20;;;;;;;;;;4965185;28;20172;-81
2021/09/13 03:34:39;;;;;;;10.07;3.70;;;;;;;;;;4963691;28;20038;-80
2021/09/13 03:37:06;;;;;;;8.82;3.55;;;;;;;;;;4963040;28;20046;-81
2021/09/13 03:39:33;;;;;;;10.15;3.05;;;;;;;;;;4964293;28;20495;-80
2021/09/13 03:42:00;;;;;;;8.52;3.10;;;;;;;;;;4965605;28;20033;-83
2021/09/13 03:44:26;;;;;;;9.85;3.78;;;;;;;;;;4975254;28;20578;-83
2021/09/13 03:46:54;;;;;;;9.82;3.25;;;;;;;;;;4966062;28;20065;-80
2021/09/13 03:49:22;;;;;;;10.05;3.45;;;;;;;;;;4957966;28;20114;-81
2021/09/13 03:51:49;;;;;;;8.40;3.50;;;;;;;;;;4959630;28;20129;-80
2021/09/13 03:54:16;;;;;;;8.68;3.50;;;;;;;;;;4965528;28;20430;-80
2021/09/13 03:56:42;;;;;;;9.60;3.78;;;;;;;;;;4969323;28;20092;-80
2021/09/13 03:59:09;;;;;;;8.85;3.65;;;;;;;;;;4965664;28;20038;-80
2021/09/13 04:01:36;;;;;;;8.95;3.60;;;;;;;;;;4952950;28;20293;-81
2021/09/13 04:04:05;;;;;;;8.00;3.72;;;;;;;;;;4959606;28;20604;-81
2021/09/13 04:11:55;;;;;;;9.25;3.42;;;;;;;;;;4956200;28;20960;-81
2021/09/13 04:14:24;;;;;;;10.80;4.07;;;;;;;;;;4955602;28;20053;-82
2021/09/13 04:16:50;;;;;;;9.77;3.90;;;;;;;;;;4961243;28;20054;-81
2021/09/13 04:19:17;;;;;;;8.85;4.50;;;;;;;;;;4958683;28;20038;-81
2021/09/13 04:21:43;;;;;;;10.27;3.72;;;;;;;;;;4946033;28;20134;-82
2021/09/13 04:24:10;;;;;;;11.70;3.70;;;;;;;;;;4945326;28;20314;-81
2021/09/13 04:26:37;;;;;;;8.57;3.42;;;;;;;;;;4955781;28;20882;-81
2021/09/13 04:29:04;;;;;;;7.10;3.20;;;;;;;;;;4962094;28;20030;-81
2021/09/13 04:31:31;;;;;;;9.98;3.10;;;;;;;;;;4959020;28;20031;-81
2021/09/13 04:33:58;;;;;;;7.53;2.85;;;;;;;;;;4981957;28;20042;-81
2021/09/13 04:36:24;;;;;;;7.32;2.95;;;;;;;;;;4960800;28;20041;-81
2021/09/13 04:38:51;;;;;;;9.10;3.60;;;;;;;;;;4969831;28;20038;-80
2021/09/13 04:41:18;;;;;;;6.82;2.97;;;;;;;;;;4963286;28;20046;-80
2021/09/13 04:43:46;;;;;;;10.48;4.10;;;;;;;;;;4965732;28;20157;-81
2021/09/13 04:46:18;;;;;;;10.38;4.53;;;;;;;;;;4961529;28;20048;-80
2021/09/13 04:48:46;;;;;;;8.07;3.17;;;;;;;;;;4980517;28;20122;-81
2021/09/13 04:51:14;;;;;;;10.57;3.65;;;;;;;;;;4964899;28;20054;-82
2021/09/13 04:53:43;;;;;;;9.60;3.85;;;;;;;;;;4981751;28;20110;-82
2021/09/13 04:56:10;;;;;;;10.68;4.70;;;;;;;;;;4966659;28;20041;-83
2021/09/13 04:58:36;;;;;;;11.18;4.18;;;;;;;;;;4974734;28;20042;-81
2021/09/13 05:01:07;;;;;;;13.10;3.78;;;;;;;;;;4966911;28;20030;-80
2021/09/13 05:03:35;;;;;;;9.93;3.75;;;;;;;;;;4961361;28;20034;-81
2021/09/13 05:06:03;;;;;;;9.40;3.38;;;;;;;;;;4964397;28;20030;-82
2021/09/13 05:08:29;;;;;;;8.13;3.10;;;;;;;;;;4931772;28;20038;-81
2021/09/13 05:10:55;;;;;;;8.52;3.00;;;;;;;;;;4965714;28;20133;-81
2021/09/13 05:13:22;;;;;;;8.07;2.80;;;;;;;;;;4961655;28;20054;-81
2021/09/13 05:15:48;;;;;;;8.57;2.97;;;;;;;;;;4967375;28;20030;-81
2021/09/13 05:18:16;;;;;;;8.50;2.95;;;;;;;;;;4963504;28;20033;-80
2021/09/13 05:20:42;;;;;;;7.15;2.70;;;;;;;;;;4968319;28;20506;-82
2021/09/13 05:23:09;;;;;;;9.07;3.30;;;;;;;;;;4983887;28;20104;-80
2021/09/13 05:25:36;;;;;;;7.68;3.30;;;;;;;;;;4975695;28;21388;-81
2021/09/13 05:28:04;;;;;;;11.85;3.30;;;;;;;;;;4976437;28;20025;-80
2021/09/13 05:30:31;;;;;;;10.18;3.40;;;;;;;;;;4978622;28;20057;-80
2021/09/13 05:32:58;;;;;;;11.70;3.47;;;;;;;;;;4990131;28;20472;-80
2021/09/13 05:35:25;;;;;;;10.48;3.92;;;;;;;;;;4958005;28;20817;-82
2021/09/13 05:37:52;;;;;;;9.93;3.75;;;;;;;;;;4964963;28;20030;-81
2021/09/13 05:40:19;;;;;;;9.90;3.80;;;;;;;;;;4955428;28;20379;-81
2021/09/13 05:42:45;;;;;;;8.32;2.90;;;;;;;;;;4972691;28;20034;-81
2021/09/13 05:45:12;;;;;;;7.82;2.97;;;;;;;;;;4961268;28;20080;-81
2021/09/13 05:47:39;;;;;;;7.25;2.60;;;;;;;;;;4959729;28;20546;-81
2021/09/13 05:50:07;;;;;;;8.00;2.65;;;;;;;;;;4962903;28;20041;-80
2021/09/13 05:52:34;;;;;;;6.75;2.30;;;;;;;;;;4956856;28;20038;-81
2021/09/13 05:55:01;;;;;;;6.85;2.22;;;;;;;;;;4953071;28;20506;-81
2021/09/13 05:57:28;;;;;;;8.40;2.53;;;;;;;;;;4952278;28;20031;-82
2021/09/13 05:59:55;;;;;;;10.35;2.58;;;;;;;;;;4958443;28;20018;-80
2021/09/13 06:02:23;;;;;;;9.07;2.38;;;;;;;;;;4962769;28;20121;-82
2021/09/13 06:04:49;;;;;;;8.52;2.22;;;;;;;;;;4973831;28;20041;-81
2021/09/13 06:07:16;;;;;;;11.27;2.50;;;;;;;;;;4955795;28;20046;-81
2021/09/13 06:09:42;;;;;;;7.20;2.53;;;;;;;;;;4960951;28;20037;-80
2021/09/13 06:12:11;;;;;;;6.78;2.40;;;;;;;;;;4973975;28;20025;-81
2021/09/13 06:14:42;;;;;;;7.75;1.90;;;;;;;;;;4956316;28;20048;-81
2021/09/13 06:17:09;;;;;;;6.22;2.17;;;;;;;;;;4962317;28;20043;-81
2021/09/13 06:19:36;;;;;;;8.65;2.13;;;;;;;;;;4956400;28;21830;-82
2021/09/13 06:22:03;;;;;;;8.10;2.20;;;;;;;;;;4977133;28;20060;-81
2021/09/13 06:24:30;;;;;;;5.57;2.08;;;;;;;;;;4969546;28;20037;-82
2021/09/13 06:26:57;;;;;;;7.65;2.17;;;;;;;;;;4975881;28;20432;-81
2021/09/13 06:29:24;;;;;;;8.63;2.45;;;;;;;;;;4960322;28;20496;-81
2021/09/13 06:31:51;;;;;;;9.88;2.85;;;;;;;;;;4961524;28;20891;-81
2021/09/13 06:34:18;;;;;;;10.48;2.70;;;;;;;;;;4958361;28;20408;-81
2021/09/13 06:36:46;;;;;;;11.10;2.65;;;;;;;;;;4977107;28;20504;-81
2021/09/13 06:39:13;;;;;;;9.18;3.53;;;;;;;;;;4976908;28;20073;-81
2021/09/13 06:41:39;;;;;;;10.32;3.20;;;;;;;;;;4974834;28;20041;-81
2021/09/13 06:44:06;;;;;;;9.48;3.55;;;;;;;;;;4960015;28;20050;-83
2021/09/13 06:46:41;;;;;;;12.55;3.03;;;;;;;;;;4968487;28;20046;-82
2021/09/13 06:49:09;;;;;;;16.08;4.68;;;;;;;;;;4961221;28;20221;-83
2021/09/13 06:51:35;;;;;;;15.10;3.92;;;;;;;;;;4954884;28;20037;-82
2021/09/13 06:54:03;;;;;;;13.75;3.90;;;;;;;;;;4969824;28;20034;-81
2021/09/13 06:56:29;;;;;;;14.90;3.60;;;;;;;;;;4965221;28;20030;-82
2021/09/13 06:58:56;;;;;;;15.02;4.00;;;;;;;;;;4973981;28;20030;-82
2021/09/13 07:01:23;;;;;;;13.95;3.80;;;;;;;;;;4955887;28;20046;-83
2021/09/13 07:03:57;;;;;;;13.15;4.22;;;;;;;;;;4963044;28;20042;-83
2021/09/13 07:06:28;;;;;;;10.77;3.80;;;;;;;;;;4956632;28;20030;-83
2021/09/13 07:08:55;;;;;;;17.27;6.07;;;;;;;;;;4958271;28;20022;-83
2021/09/13 07:11:23;;;;;;;14.55;5.07;;;;;;;;;;4957714;28;20380;-83
2021/09/13 07:13:50;;;;;;;11.73;3.40;;;;;;;;;;4962350;28;20118;-83
2021/09/13 07:16:20;;;;;;;14.27;4.57;;;;;;;;;;4972769;28;20035;-82
2021/09/13 07:18:47;;;;;;;13.13;3.78;;;;;;;;;;4958411;28;20051;-83
2021/09/13 07:21:16;;;;;;;10.23;4.80;;;;;;;;;;4958672;28;20896;-83
2021/09/13 07:23:43;;;;;;;9.75;3.50;;;;;;;;;;4960050;28;20038;-82
2021/09/13 07:26:09;;;;;;;11.55;3.25;;;;;;;;;;4960336;28;20026;-82
2021/09/13 07:28:36;;;;;;;10.65;3.28;;;;;;;;;;4954478;28;20866;-81
2021/09/13 07:31:02;;;;;;;9.60;3.28;;;;;;;;;;4976576;28;20040;-83
2021/09/13 07:33:29;;;;;;;9.32;3.17;;;;;;;;;;4956650;28;20451;-83
2021/09/13 07:35:56;;;;;;;8.18;3.28;;;;;;;;;;4958971;28;20065;-81
2021/09/13 07:38:24;;;;;;;9.75;3.67;;;;;;;;;;4958061;28;20048;-81
2021/09/13 07:40:51;;;;;;;9.60;3.08;;;;;;;;;;4961146;28;20772;-80
2021/09/13 07:43:18;;;;;;;6.10;2.28;;;;;;;;;;4958917;28;20038;-84
2021/09/13 07:45:45;;;;;;;6.72;2.38;;;;;;;;;;4959083;28;20053;-81
2021/09/13 07:48:12;;;;;;;10.18;3.42;;;;;;;;;;4978634;28;20046;-84
2021/09/13 07:50:40;;;;;;;8.15;2.80;;;;;;;;;;4949220;28;20041;-82
2021/09/13 07:53:07;;;;;;;10.32;2.95;;;;;;;;;;4962131;28;20043;-81
2021/09/13 07:55:35;;;;;;;7.13;2.40;;;;;;;;;;4957051;28;20134;-81
2021/09/13 07:58:02;;;;;;;9.15;2.55;;;;;;;;;;4975191;28;20046;-81
2021/09/13 08:00:28;;;;;;;7.70;2.60;;;;;;;;;;4957019;28;20023;-81
2021/09/13 08:02:55;;;;;;;8.85;2.58;;;;;;;;;;4978378;28;20645;-82
2021/09/13 08:05:23;;;;;;;8.10;2.63;;;;;;;;;;4957408;28;20062;-81
2021/09/13 08:07:50;;;;;;;8.80;2.63;;;;;;;;;;4960623;28;20039;-83
2021/09/13 08:10:17;;;;;;;9.95;3.75;;;;;;;;;;4971157;28;20125;-82
2021/09/13 08:12:43;;;;;;;8.13;2.67;;;;;;;;;;4972686;28;20100;-82
2021/09/13 08:15:10;;;;;;;7.43;2.53;;;;;;;;;;4961106;28;20030;-82
2021/09/13 08:17:37;;;;;;;9.52;2.85;;;;;;;;;;4956231;28;21727;-82
2021/09/13 08:20:04;;;;;;;9.23;3.78;;;;;;;;;;4960183;28;20034;-82
2021/09/13 08:22:31;;;;;;;7.70;2.70;;;;;;;;;;4959244;28;20047;-81
2021/09/13 08:24:58;;;;;;;10.48;3.15;;;;;;;;;;4953199;28;20046;-82
2021/09/13 08:27:24;;;;;;;9.98;5.30;;;;;;;;;;4954575;28;20046;-82
2021/09/13 08:29:50;;;;;;;7.95;2.80;;;;;;;;;;4974933;28;20037;-82
2021/09/13 08:32:17;;;;;;;10.52;2.95;;;;;;;;;;4955970;28;20339;-81
2021/09/13 08:34:44;;;;;;;9.68;4.38;;;;;;;;;;4972779;28;20038;-83
2021/09/13 08:37:11;;;;;;;9.23;3.08;;;;;;;;;;4956832;28;20038;-84
2021/09/13 08:39:38;;;;;;;7.93;2.72;;;;;;;;;;4954462;28;20795;-83
2021/09/13 08:42:06;;;;;;;8.80;3.70;;;;;;;;;;4971235;28;20042;-82
2021/09/13 08:44:34;;;;;;;8.25;3.30;;;;;;;;;;4976712;28;20054;-83
2021/09/13 08:47:05;;;;;;;8.95;3.25;;;;;;;;;;4977327;28;20688;-82
2021/09/13 08:49:37;;;;;;;9.27;3.30;;;;;;;;;;4963078;28;20065;-82
2021/09/13 08:52:05;;;;;;;7.60;2.30;;;;;;;;;;4963391;28;20069;-83
2021/09/13 08:54:35;;;;;;;7.50;2.50;;;;;;;;;;4959104;28;20123;-82
2021/09/13 08:57:06;;;;;;;10.02;2.90;;;;;;;;;;4977193;28;20038;-83
2021/09/13 08:59:37;;;;;;;13.38;7.50;;;;;;;;;;4960697;28;20153;-83
2021/09/13 09:02:05;;;;;;;5.57;1.98;;;;;;;;;;4963234;28;20113;-83
2021/09/13 09:04:31;;;;;;;9.82;4.72;;;;;;;;;;4951661;28;20109;-83
2021/09/13 09:07:09;;;;;;;9.82;4.50;;;;;;;;;;4950598;28;20347;-83
2021/09/13 09:09:37;;;;;;;6.72;2.40;;;;;;;;;;4934526;28;21494;-83
2021/09/13 09:12:08;;;;;;;8.45;2.30;;;;;;;;;;4959990;28;20022;-83
2021/09/13 09:14:48;;;;;;;6.90;2.10;;;;;;;;;;4953234;28;21710;-83
2021/09/13 09:17:27;;;;;;;8.07;2.08;;;;;;;;;;4944161;28;20039;-82
2021/09/13 09:20:04;;;;;;;8.23;2.00;;;;;;;;;;4965469;28;20066;-83
2021/09/13 09:22:32;;;;;;;6.93;1.70;;;;;;;;;;4956503;28;20138;-83
2021/09/13 09:25:03;;;;;;;7.03;2.80;;;;;;;;;;4969525;28;20050;-84
2021/09/13 09:27:30;;;;;;;6.63;1.90;;;;;;;;;;4966889;28;20045;-84
2021/09/13 09:30:12;;;;;;;4.78;1.60;;;;;;;;;;4972454;28;20037;-82
2021/09/13 09:32:41;;;;;;;9.43;1.65;;;;;;;;;;4952577;28;20057;-83
2021/09/13 09:35:17;;;;;;;6.30;2.10;;;;;;;;;;4973151;28;20049;-82
2021/09/13 09:37:43;;;;;;;;;;;;;;;;;;4957539;28;21041;-82
2021/09/13 09:40:09;;;;;;;;;;;;;;;;;;4961248;28;19922;-83
2021/09/13 09:42:35;;;;;;;;;;;;;;;;;;4956777;28;20401;-83
2021/09/13 09:45:08;;;;;;;4.90;1.60;;;;;;;;;;4960104;28;19952;-82
2021/09/13 09:47:34;;;;;;;5.18;1.63;;;;;;;;;;4973605;28;20037;-82
2021/09/13 09:50:01;;;;;;;4.55;1.58;;;;;;;;;;4962717;28;20036;-83
2021/09/13 09:52:28;;;;;;;5.00;1.42;;;;;;;;;;4970489;28;20155;-83
2021/09/13 09:55:14;;;;;;;4.85;1.55;;;;;;;;;;4963922;28;20042;-82
2021/09/13 09:57:44;;;;;;;6.60;1.80;;;;;;;;;;4970503;28;20022;-83
2021/09/13 10:00:28;;;;;;;6.53;1.65;;;;;;;;;;4958244;28;20459;-83
2021/09/13 10:02:55;;;;;;;5.35;1.70;;;;;;;;;;4966928;28;20045;-82
2021/09/13 10:05:28;;;;;;;6.95;1.63;;;;;;;;;;4965500;28;20041;-83
2021/09/13 10:07:54;;;;;;;4.70;1.70;;;;;;;;;;4940441;28;20046;-83
2021/09/13 10:10:22;;;;;;;6.68;1.60;;;;;;;;;;4959574;28;20034;-82
2021/09/13 10:12:50;;;;;;;8.23;1.70;;;;;;;;;;4955308;28;20038;-83
2021/09/13 10:15:19;;;;;;;5.13;1.33;;;;;;;;;;4956714;28;20030;-82
2021/09/13 10:17:45;;;;;;;3.92;1.30;;;;;;;;;;4978329;28;20105;-83
2021/09/13 10:20:13;;;;;;;4.72;1.42;;;;;;;;;;4983936;28;20048;-82
2021/09/13 10:22:43;;;;;;;5.85;1.42;;;;;;;;;;4972580;28;20034;-84
2021/09/13 10:25:16;;;;;;;7.25;1.90;;;;;;;;;;4992456;28;20045;-83
2021/09/13 10:27:52;;;;;;;7.75;1.63;;;;;;;;;;4979187;28;20034;-83
2021/09/13 10:30:24;;;;;;;6.95;1.83;;;;;;;;;;4991817;28;20085;-83
2021/09/13 10:33:10;;;;;;;5.63;1.65;;;;;;;;;;4986998;28;20062;-84
2021/09/13 10:35:55;;;;;;;4.80;1.80;;;;;;;;;;4982228;28;20076;-84
2021/09/13 10:38:55;;;;;;;9.55;4.18;;;;;;;;;;4983077;28;20030;-83
2021/09/13 10:41:56;;;;;;;5.97;1.50;;;;;;;;;;4964857;28;20113;-83
2021/09/13 10:44:35;;;;;;;6.43;1.95;;;;;;;;;;4918846;28;20063;-83
2021/09/13 10:47:05;;;;;;;7.07;1.83;;;;;;;;;;4927299;29;20036;-84
2021/09/13 10:49:31;;;;;;;8.43;1.70;;;;;;;;;;4865138;29;20043;-84
2021/09/13 10:52:17;;;;;;;6.75;1.83;;;;;;;;;;4882784;29;20044;-84
2021/09/13 10:54:43;;;;;;;;;;;;;;;;;;4876181;29;20044;-84
2021/09/13 10:57:09;;;;;;;6.10;1.83;;;;;;;;;;4877789;29;19922;-84
2021/09/13 10:59:45;;;;;;;4.80;1.55;;;;;;;;;;4871474;29;20048;-84
2021/09/13 11:02:12;;;;;;;5.75;1.50;;;;;;;;;;4878696;29;20037;-84
2021/09/13 11:04:59;;;;;;;6.90;1.50;;;;;;;;;;4872139;29;20036;-84
2021/09/13 11:07:25;;;;;;;6.72;2.03;;;;;;;;;;4878571;29;20033;-84
2021/09/13 11:09:59;;;;;;;5.80;1.73;;;;;;;;;;4882037;29;20040;-84
2021/09/13 11:12:27;;;;;;;6.03;1.60;;;;;;;;;;4885425;29;20106;-83
2021/09/13 11:15:09;;;;;;;5.93;1.80;;;;;;;;;;4874822;29;20046;-84
2021/09/13 11:17:38;;;;;;;6.88;1.48;;;;;;;;;;4888135;29;20135;-83
2021/09/13 11:20:05;;;;;;;4.65;1.40;;;;;;;;;;4933844;28;20860;-83
2021/09/13 11:22:41;;;;;;;5.13;1.50;;;;;;;;;;4957865;28;20042;-84
2021/09/13 11:25:09;;;;;;;6.63;1.60;;;;;;;;;;4936282;28;20046;-84
2021/09/13 11:27:36;;;;;;;6.55;2.10;;;;;;;;;;4964772;28;20029;-85
2021/09/13 11:30:03;;;;;;;4.82;1.40;;;;;;;;;;4971363;28;20053;-84
2021/09/13 11:32:31;;;;;;;6.38;1.80;;;;;;;;;;4965506;28;20050;-84
2021/09/13 11:34:59;;;;;;;8.05;1.77;;;;;;;;;;4966280;28;20116;-84
2021/09/13 11:37:27;;;;;;;7.93;1.80;;;;;;;;;;4977796;28;20060;-83
2021/09/13 11:39:59;;;;;;;8.13;1.83;;;;;;;;;;4964387;28;20114;-84
2021/09/13 11:42:29;;;;;;;7.97;2.20;;;;;;;;;;4966460;28;20061;-84
2021/09/13 11:44:57;;;;;;;8.18;2.00;;;;;;;;;;4963124;28;20499;-84
2021/09/13 11:47:25;;;;;;;11.73;1.80;;;;;;;;;;4957721;28;20058;-84
2021/09/13 11:49:54;;;;;;;7.25;1.70;;;;;;;;;;4962127;28;20739;-83
2021/09/13 11:52:29;;;;;;;5.00;1.60;;;;;;;;;;4959827;28;20039;-84
2021/09/13 11:55:12;;;;;;;5.57;1.80;;;;;;;;;;4966181;28;20584;-84
2021/09/13 11:57:39;;;;;;;6.15;2.45;;;;;;;;;;4966033;28;20042;-83
2021/09/13 12:00:33;;;;;;;4.88;1.60;;;;;;;;;;4999067;28;20038;-84
2021/09/13 12:03:02;;;;;;;7.53;2.00;;;;;;;;;;4985589;28;20042;-83
2021/09/13 12:05:35;;;;;;;6.68;1.80;;;;;;;;;;4975415;28;20039;-83
2021/09/13 12:08:02;;;;;;;3.55;1.60;;;;;;;;;;4968067;28;20041;-83
2021/09/13 12:10:34;;;;;;;8.80;2.08;;;;;;;;;;4967847;28;20085;-83
2021/09/13 12:13:17;;;;;;;7.78;1.85;;;;;;;;;;4951168;28;20145;-83
2021/09/13 12:15:55;;;;;;;7.35;2.00;;;;;;;;;;4962903;28;20113;-83
2021/09/13 12:18:22;;;;;;;7.30;2.53;;;;;;;;;;4962438;28;20039;-84
2021/09/13 12:20:49;;;;;;;5.90;1.90;;;;;;;;;;4960969;28;20048;-83
2021/09/13 12:23:27;;;;;;;7.15;1.58;;;;;;;;;;4988514;28;20125;-83
2021/09/13 12:26:06;;;;;;;6.28;1.90;;;;;;;;;;4968263;28;20141;-83
2021/09/13 12:28:36;;;;;;;5.22;1.50;;;;;;;;;;4950661;28;20416;-83
2021/09/13 12:31:04;;;;;;;6.20;1.83;;;;;;;;;;4963588;28;20049;-83
2021/09/13 12:33:51;;;;;;;5.63;1.77;;;;;;;;;;4959460;28;20061;-83
2021/09/13 12:36:20;;;;;;;5.97;1.80;;;;;;;;;;4946465;28;20034;-83
2021/09/13 12:38:49;;;;;;;5.20;1.90;;;;;;;;;;4988538;28;20038;-83
2021/09/13 12:41:29;;;;;;;5.38;1.60;;;;;;;;;;4965990;28;20081;-82
2021/09/13 12:43:57;;;;;;;5.63;1.85;;;;;;;;;;4962679;28;20038;-83
2021/09/13 12:46:24;;;;;;;6.82;1.70;;;;;;;;;;4956839;28;20049;-84
2021/09/13 12:48:53;;;;;;;7.68;1.85;;;;;;;;;;4965156;28;20045;-84
2021/09/13 12:51:21;;;;;;;7.60;1.85;;;;;;;;;;4957067;28;20030;-83
2021/09/13 12:54:05;;;;;;;6.88;1.77;;;;;;;;;;4957518;28;20029;-83
2021/09/13 12:56:42;;;;;;;5.18;1.50;;;;;;;;;;4971421;28;20042;-84
2021/09/13 12:59:11;;;;;;;6.13;1.70;;;;;;;;;;4972453;28;20065;-83
2021/09/13 13:01:39;;;;;;;6.35;1.70;;;;;;;;;;4970252;28;20076;-84
2021/09/13 13:04:08;;;;;;;5.75;1.80;;;;;;;;;;4994166;28;20526;-83
2021/09/13 13:06:35;;;;;;;5.15;1.85;;;;;;;;;;4987197;28;20072;-84
2021/09/13 13:09:03;;;;;;;6.15;2.10;;;;;;;;;;4979808;28;20030;-82
2021/09/13 13:11:29;;;;;;;8.65;2.25;;;;;;;;;;4969192;28;20552;-83
2021/09/13 13:13:59;;;;;;;5.97;2.00;;;;;;;;;;4983621;28;20104;-82
2021/09/13 13:16:38;;;;;;;5.47;2.00;;;;;;;;;;4965606;28;20165;-83
2021/09/13 13:19:10;;;;;;;6.35;2.10;;;;;;;;;;4962531;28;20099;-83
2021/09/13 13:21:42;;;;;;;8.23;1.98;;;;;;;;;;4962729;28;20022;-83
2021/09/13 13:24:11;;;;;;;6.38;1.80;;;;;;;;;;4960407;28;20034;-82
2021/09/13 13:26:37;;;;;;;6.53;2.13;;;;;;;;;;4976372;28;20034;-83
2021/09/13 13:29:06;;;;;;;6.40;1.80;;;;;;;;;;4974202;28;20035;-82
2021/09/13 13:31:32;;;;;;;5.60;1.88;;;;;;;;;;4958441;28;20035;-83
2021/09/13 13:33:59;;;;;;;6.97;1.83;;;;;;;;;;4980960;28;20045;-83
2021/09/13 13:36:26;;;;;;;5.68;1.80;;;;;;;;;;4958497;28;20037;-82
2021/09/13 13:38:53;;;;;;;6.35;1.77;;;;;;;;;;4959596;28;20521;-83
2021/09/13 13:41:21;;;;;;;5.97;1.75;;;;;;;;;;4972038;28;20070;-83
2021/09/13 13:43:47;;;;;;;5.30;1.90;;;;;;;;;;4961290;28;20041;-83
2021/09/13 13:46:15;;;;;;;6.05;2.10;;;;;;;;;;4960947;28;20070;-83
2021/09/13 13:48:41;;;;;;;7.35;2.10;;;;;;;;;;4959278;28;20042;-83
2021/09/13 13:51:11;;;;;;;6.78;1.77;;;;;;;;;;4964511;28;20851;-83
2021/09/13 13:53:38;;;;;;;5.85;1.88;;;;;;;;;;4944853;28;20053;-83
2021/09/13 13:56:05;;;;;;;7.53;2.22;;;;;;;;;;4970643;28;20258;-82
2021/09/13 13:58:31;;;;;;;7.80;1.90;;;;;;;;;;4965346;28;20042;-82
2021/09/13 14:00:58;;;;;;;5.13;1.90;;;;;;;;;;4972842;28;20038;-83
2021/09/13 14:03:24;;;;;;;7.13;2.15;;;;;;;;;;4974239;28;20026;-83
2021/09/13 14:05:52;;;;;;;5.85;2.00;;;;;;;;;;4963362;28;20053;-83
2021/09/13 14:08:19;;;;;;;6.30;1.90;;;;;;;;;;4973100;28;20658;-83
2021/09/13 14:10:46;;;;;;;7.22;2.08;;;;;;;;;;4961970;28;20060;-83
2021/09/13 14:13:14;;;;;;;5.25;1.90;;;;;;;;;;4976934;28;20046;-83
2021/09/13 14:15:42;;;;;;;5.38;1.88;;;;;;;;;;4960351;28;20050;-82
2021/09/13 14:18:09;;;;;;;6.35;2.30;;;;;;;;;;4974950;28;20030;-83
2021/09/13 14:20:41;;;;;;;6.40;2.35;;;;;;;;;;4960186;28;21428;-82
2021/09/13 14:23:07;;;;;;;9.00;2.60;;;;;;;;;;4944158;28;20090;-82
2021/09/13 14:25:34;;;;;;;9.38;2.60;;;;;;;;;;4959282;28;20400;-83
2021/09/13 14:28:02;;;;;;;6.70;2.45;;;;;;;;;;4961272;28;20038;-82
2021/09/13 14:30:29;;;;;;;12.75;2.80;;;;;;;;;;4952510;28;20097;-82
2021/09/13 14:32:56;;;;;;;10.20;2.83;;;;;;;;;;4960982;28;20665;-82
2021/09/13 14:35:23;;;;;;;7.68;2.60;;;;;;;;;;4951633;28;20069;-82
2021/09/13 14:37:49;;;;;;;8.10;2.78;;;;;;;;;;4955710;28;20042;-83
2021/09/13 14:40:16;;;;;;;7.80;2.90;;;;;;;;;;4964857;28;20042;-82
2021/09/13 14:42:42;;;;;;;11.52;3.20;;;;;;;;;;4962894;28;20041;-82
2021/09/13 14:45:10;;;;;;;9.07;3.33;;;;;;;;;;4979474;28;20345;-80
2021/09/13 14:47:36;;;;;;;9.35;3.10;;;;;;;;;;4968521;28;20100;-79
2021/09/13 14:50:04;;;;;;;7.78;2.67;;;;;;;;;;4962048;28;20044;-80
2021/09/13 14:52:31;;;;;;;9.35;2.78;;;;;;;;;;4973009;28;20549;-81
2021/09/13 14:55:03;;;;;;;7.57;2.75;;;;;;;;;;4960418;28;20035;-81
2021/09/13 14:57:31;;;;;;;7.45;2.75;;;;;;;;;;4952886;28;20492;-81